sensor_id;sensor_type;location;lat;lon;timestamp;P1;durP1;ratioP1;P2;durP2;ratioP2
38972;SDS011;25333;50.762;4.470;2023-04-25T00:02:17;8.00;;;2.80;;
38972;SDS011;25333;50.762;4.470;2023-04-25T00:04:44;6.70;;;2.80;;
38972;SDS011;25333;50.762;4.470;2023-04-25T00:07:10;9.55;;;3.30;;
38972;SDS011;25333;50.762;4.470;2023-04-25T00:09:36;5.80;;;2.65;;
38972;SDS011;25333;50.762;4.470;2023-04-25T00:12:02;9.23;;;2.83;;
38972;SDS011;25333;50.762;4.470;2023-04-25T00:14:28;7.13;;;2.80;;
38972;SDS011;25333;50.762;4.470;2023-04-25T00:16:54;11.77;;;3.20;;
38972;SDS011;25333;50.762;4.470;2023-04-25T00:19:20;10.02;;;3.95;;
38972;SDS011;25333;50.762;4.470;2023-04-25T00:21:45;9.85;;;3.28;;
38972;SDS011;25333;50.762;4.470;2023-04-25T00:24:12;15.40;;;4.00;;
38972;SDS011;25333;50.762;4.470;2023-04-25T00:26:37;6.15;;;2.92;;
38972;SDS011;25333;50.762;4.470;2023-04-25T00:29:03;11.05;;;3.30;;
38972;SDS011;25333;50.762;4.470;2023-04-25T00:31:29;6.38;;;2.30;;
38972;SDS011;25333;50.762;4.470;2023-04-25T00:33:55;7.60;;;2.70;;
38972;SDS011;25333;50.762;4.470;2023-04-25T00:36:21;6.27;;;2.87;;
38972;SDS011;25333;50.762;4.470;2023-04-25T00:38:47;11.55;;;3.28;;
38972;SDS011;25333;50.762;4.470;2023-04-25T00:41:15;7.88;;;3.08;;
38972;SDS011;25333;50.762;4.470;2023-04-25T00:43:41;9.07;;;2.97;;
38972;SDS011;25333;50.762;4.470;2023-04-25T00:46:07;7.20;;;3.42;;
38972;SDS011;25333;50.762;4.470;2023-04-25T00:48:33;7.35;;;2.90;;
38972;SDS011;25333;50.762;4.470;2023-04-25T00:50:59;8.87;;;3.07;;
38972;SDS011;25333;50.762;4.470;2023-04-25T00:53:26;5.82;;;2.78;;
38972;SDS011;25333;50.762;4.470;2023-04-25T00:55:53;6.30;;;2.70;;
38972;SDS011;25333;50.762;4.470;2023-04-25T00:58:20;9.07;;;3.03;;
38972;SDS011;25333;50.762;4.470;2023-04-25T01:00:46;8.77;;;3.08;;
38972;SDS011;25333;50.762;4.470;2023-04-25T01:03:13;7.68;;;3.28;;
38972;SDS011;25333;50.762;4.470;2023-04-25T01:05:44;7.90;;;2.90;;
38972;SDS011;25333;50.762;4.470;2023-04-25T01:08:10;5.72;;;2.83;;
38972;SDS011;25333;50.762;4.470;2023-04-25T01:10:36;6.88;;;2.60;;
38972;SDS011;25333;50.762;4.470;2023-04-25T01:13:02;9.30;;;3.17;;
38972;SDS011;25333;50.762;4.470;2023-04-25T01:15:28;6.80;;;2.33;;
38972;SDS011;25333;50.762;4.470;2023-04-25T01:17:54;9.55;;;3.72;;
38972;SDS011;25333;50.762;4.470;2023-04-25T01:20:23;6.28;;;2.30;;
38972;SDS011;25333;50.762;4.470;2023-04-25T01:22:52;8.10;;;2.60;;
38972;SDS011;25333;50.762;4.470;2023-04-25T01:25:18;8.60;;;2.50;;
38972;SDS011;25333;50.762;4.470;2023-04-25T01:27:44;7.60;;;2.80;;
38972;SDS011;25333;50.762;4.470;2023-04-25T01:30:11;7.70;;;2.95;;
38972;SDS011;25333;50.762;4.470;2023-04-25T01:32:37;7.72;;;2.60;;
38972;SDS011;25333;50.762;4.470;2023-04-25T01:35:06;8.35;;;3.30;;
38972;SDS011;25333;50.762;4.470;2023-04-25T01:37:37;7.97;;;2.70;;
38972;SDS011;25333;50.762;4.470;2023-04-25T01:40:08;5.93;;;2.80;;
38972;SDS011;25333;50.762;4.470;2023-04-25T01:42:35;8.98;;;2.80;;
38972;SDS011;25333;50.762;4.470;2023-04-25T01:45:02;7.72;;;3.10;;
38972;SDS011;25333;50.762;4.470;2023-04-25T01:47:28;8.85;;;2.97;;
38972;SDS011;25333;50.762;4.470;2023-04-25T01:49:54;6.47;;;2.58;;
38972;SDS011;25333;50.762;4.470;2023-04-25T01:52:20;9.90;;;3.00;;
38972;SDS011;25333;50.762;4.470;2023-04-25T01:54:46;8.83;;;3.27;;
38972;SDS011;25333;50.762;4.470;2023-04-25T01:57:12;9.55;;;3.13;;
38972;SDS011;25333;50.762;4.470;2023-04-25T01:59:39;7.40;;;2.45;;
38972;SDS011;25333;50.762;4.470;2023-04-25T02:02:05;9.32;;;2.92;;
38972;SDS011;25333;50.762;4.470;2023-04-25T02:04:31;10.68;;;3.55;;
38972;SDS011;25333;50.762;4.470;2023-04-25T02:06:57;8.93;;;3.15;;
38972;SDS011;25333;50.762;4.470;2023-04-25T02:09:23;8.93;;;3.42;;
38972;SDS011;25333;50.762;4.470;2023-04-25T02:11:49;6.90;;;3.37;;
38972;SDS011;25333;50.762;4.470;2023-04-25T02:14:14;7.93;;;3.55;;
38972;SDS011;25333;50.762;4.470;2023-04-25T02:16:40;6.90;;;3.30;;
38972;SDS011;25333;50.762;4.470;2023-04-25T02:19:08;9.93;;;3.42;;
38972;SDS011;25333;50.762;4.470;2023-04-25T02:21:35;9.52;;;3.08;;
38972;SDS011;25333;50.762;4.470;2023-04-25T02:24:01;11.15;;;3.70;;
38972;SDS011;25333;50.762;4.470;2023-04-25T02:26:27;16.25;;;4.15;;
38972;SDS011;25333;50.762;4.470;2023-04-25T02:28:53;10.85;;;3.80;;
38972;SDS011;25333;50.762;4.470;2023-04-25T02:31:19;11.00;;;3.42;;
38972;SDS011;25333;50.762;4.470;2023-04-25T02:33:45;7.30;;;3.00;;
38972;SDS011;25333;50.762;4.470;2023-04-25T02:36:12;12.03;;;4.17;;
38972;SDS011;25333;50.762;4.470;2023-04-25T02:38:38;12.88;;;4.43;;
38972;SDS011;25333;50.762;4.470;2023-04-25T02:41:04;9.25;;;4.03;;
38972;SDS011;25333;50.762;4.470;2023-04-25T02:43:30;8.88;;;3.92;;
38972;SDS011;25333;50.762;4.470;2023-04-25T02:45:55;13.97;;;4.40;;
38972;SDS011;25333;50.762;4.470;2023-04-25T02:48:21;10.18;;;3.78;;
38972;SDS011;25333;50.762;4.470;2023-04-25T02:50:47;7.43;;;3.67;;
38972;SDS011;25333;50.762;4.470;2023-04-25T02:53:12;8.88;;;3.85;;
38972;SDS011;25333;50.762;4.470;2023-04-25T02:55:38;13.83;;;4.23;;
38972;SDS011;25333;50.762;4.470;2023-04-25T02:58:04;11.82;;;4.43;;
38972;SDS011;25333;50.762;4.470;2023-04-25T03:00:30;12.50;;;4.07;;
38972;SDS011;25333;50.762;4.470;2023-04-25T03:02:56;11.20;;;3.90;;
38972;SDS011;25333;50.762;4.470;2023-04-25T03:05:21;10.40;;;3.90;;
38972;SDS011;25333;50.762;4.470;2023-04-25T03:07:47;11.65;;;4.30;;
38972;SDS011;25333;50.762;4.470;2023-04-25T03:10:12;11.37;;;4.13;;
38972;SDS011;25333;50.762;4.470;2023-04-25T03:12:38;7.15;;;3.42;;
38972;SDS011;25333;50.762;4.470;2023-04-25T03:15:04;10.10;;;3.80;;
38972;SDS011;25333;50.762;4.470;2023-04-25T03:17:30;8.40;;;3.17;;
38972;SDS011;25333;50.762;4.470;2023-04-25T03:19:56;8.63;;;4.03;;
38972;SDS011;25333;50.762;4.470;2023-04-25T03:22:22;7.47;;;3.40;;
38972;SDS011;25333;50.762;4.470;2023-04-25T03:24:49;10.27;;;3.70;;
38972;SDS011;25333;50.762;4.470;2023-04-25T03:27:15;8.57;;;3.35;;
38972;SDS011;25333;50.762;4.470;2023-04-25T03:29:40;7.00;;;2.80;;
38972;SDS011;25333;50.762;4.470;2023-04-25T03:32:06;7.75;;;3.17;;
38972;SDS011;25333;50.762;4.470;2023-04-25T03:34:32;8.90;;;2.87;;
38972;SDS011;25333;50.762;4.470;2023-04-25T03:36:57;12.38;;;3.92;;
38972;SDS011;25333;50.762;4.470;2023-04-25T03:39:23;10.70;;;3.37;;
38972;SDS011;25333;50.762;4.470;2023-04-25T03:41:49;10.55;;;3.10;;
38972;SDS011;25333;50.762;4.470;2023-04-25T03:44:14;10.45;;;3.60;;
38972;SDS011;25333;50.762;4.470;2023-04-25T03:46:40;9.67;;;4.07;;
38972;SDS011;25333;50.762;4.470;2023-04-25T03:49:06;6.47;;;3.75;;
38972;SDS011;25333;50.762;4.470;2023-04-25T03:51:31;10.33;;;3.33;;
38972;SDS011;25333;50.762;4.470;2023-04-25T03:53:57;9.88;;;4.10;;
38972;SDS011;25333;50.762;4.470;2023-04-25T03:56:23;11.23;;;4.00;;
38972;SDS011;25333;50.762;4.470;2023-04-25T03:58:48;11.15;;;3.88;;
38972;SDS011;25333;50.762;4.470;2023-04-25T04:01:14;13.48;;;4.30;;
38972;SDS011;25333;50.762;4.470;2023-04-25T04:03:40;8.13;;;3.97;;
38972;SDS011;25333;50.762;4.470;2023-04-25T04:06:06;7.30;;;3.92;;
38972;SDS011;25333;50.762;4.470;2023-04-25T04:08:32;9.50;;;4.20;;
38972;SDS011;25333;50.762;4.470;2023-04-25T04:10:58;8.82;;;3.85;;
38972;SDS011;25333;50.762;4.470;2023-04-25T04:13:28;14.55;;;5.00;;
38972;SDS011;25333;50.762;4.470;2023-04-25T04:15:54;8.10;;;4.05;;
38972;SDS011;25333;50.762;4.470;2023-04-25T04:18:20;15.35;;;5.75;;
38972;SDS011;25333;50.762;4.470;2023-04-25T04:20:46;10.27;;;4.63;;
38972;SDS011;25333;50.762;4.470;2023-04-25T04:23:12;12.88;;;4.80;;
38972;SDS011;25333;50.762;4.470;2023-04-25T04:25:38;11.38;;;4.93;;
38972;SDS011;25333;50.762;4.470;2023-04-25T04:28:05;15.95;;;4.72;;
38972;SDS011;25333;50.762;4.470;2023-04-25T04:30:32;10.43;;;4.65;;
38972;SDS011;25333;50.762;4.470;2023-04-25T04:33:01;11.30;;;5.07;;
38972;SDS011;25333;50.762;4.470;2023-04-25T04:35:26;12.30;;;4.88;;
38972;SDS011;25333;50.762;4.470;2023-04-25T04:37:52;8.57;;;4.13;;
38972;SDS011;25333;50.762;4.470;2023-04-25T04:40:19;12.38;;;4.55;;
38972;SDS011;25333;50.762;4.470;2023-04-25T04:42:46;10.82;;;4.80;;
38972;SDS011;25333;50.762;4.470;2023-04-25T04:45:13;11.70;;;4.50;;
38972;SDS011;25333;50.762;4.470;2023-04-25T04:47:39;9.65;;;4.10;;
38972;SDS011;25333;50.762;4.470;2023-04-25T04:50:09;9.57;;;4.20;;
38972;SDS011;25333;50.762;4.470;2023-04-25T04:52:37;12.43;;;4.25;;
38972;SDS011;25333;50.762;4.470;2023-04-25T04:55:04;11.85;;;4.38;;
38972;SDS011;25333;50.762;4.470;2023-04-25T04:57:30;8.73;;;3.40;;
38972;SDS011;25333;50.762;4.470;2023-04-25T04:59:57;10.52;;;4.07;;
38972;SDS011;25333;50.762;4.470;2023-04-25T05:02:24;10.70;;;4.47;;
38972;SDS011;25333;50.762;4.470;2023-04-25T05:04:50;8.75;;;3.67;;
38972;SDS011;25333;50.762;4.470;2023-04-25T05:07:16;10.17;;;3.93;;
38972;SDS011;25333;50.762;4.470;2023-04-25T05:09:42;8.77;;;3.70;;
38972;SDS011;25333;50.762;4.470;2023-04-25T05:12:08;7.43;;;4.17;;
38972;SDS011;25333;50.762;4.470;2023-04-25T05:14:34;14.00;;;4.13;;
38972;SDS011;25333;50.762;4.470;2023-04-25T05:17:00;16.38;;;4.18;;
38972;SDS011;25333;50.762;4.470;2023-04-25T05:19:25;11.57;;;4.83;;
38972;SDS011;25333;50.762;4.470;2023-04-25T05:21:51;7.53;;;3.42;;
38972;SDS011;25333;50.762;4.470;2023-04-25T05:24:17;8.95;;;4.18;;
38972;SDS011;25333;50.762;4.470;2023-04-25T05:26:43;10.10;;;3.73;;
38972;SDS011;25333;50.762;4.470;2023-04-25T05:29:09;9.85;;;4.40;;
38972;SDS011;25333;50.762;4.470;2023-04-25T05:31:35;8.95;;;4.47;;
38972;SDS011;25333;50.762;4.470;2023-04-25T05:34:01;13.05;;;4.65;;
38972;SDS011;25333;50.762;4.470;2023-04-25T05:36:27;11.95;;;4.93;;
38972;SDS011;25333;50.762;4.470;2023-04-25T05:38:53;12.13;;;4.78;;
38972;SDS011;25333;50.762;4.470;2023-04-25T05:41:18;9.90;;;4.78;;
38972;SDS011;25333;50.762;4.470;2023-04-25T05:43:45;15.27;;;5.78;;
38972;SDS011;25333;50.762;4.470;2023-04-25T05:46:12;9.70;;;4.20;;
38972;SDS011;25333;50.762;4.470;2023-04-25T05:48:39;14.20;;;5.00;;
38972;SDS011;25333;50.762;4.470;2023-04-25T05:51:05;14.23;;;5.25;;
38972;SDS011;25333;50.762;4.470;2023-04-25T05:53:30;12.23;;;4.27;;
38972;SDS011;25333;50.762;4.470;2023-04-25T05:55:56;12.68;;;4.55;;
38972;SDS011;25333;50.762;4.470;2023-04-25T05:58:22;8.87;;;3.40;;
38972;SDS011;25333;50.762;4.470;2023-04-25T06:00:47;11.23;;;4.60;;
38972;SDS011;25333;50.762;4.470;2023-04-25T06:03:13;8.00;;;3.05;;
38972;SDS011;25333;50.762;4.470;2023-04-25T06:05:41;8.05;;;4.03;;
38972;SDS011;25333;50.762;4.470;2023-04-25T06:08:07;12.25;;;3.45;;
38972;SDS011;25333;50.762;4.470;2023-04-25T06:10:33;6.93;;;3.60;;
38972;SDS011;25333;50.762;4.470;2023-04-25T06:12:58;8.93;;;4.03;;
38972;SDS011;25333;50.762;4.470;2023-04-25T06:15:24;9.70;;;3.77;;
38972;SDS011;25333;50.762;4.470;2023-04-25T06:17:50;8.68;;;3.33;;
38972;SDS011;25333;50.762;4.470;2023-04-25T06:20:16;8.65;;;4.25;;
38972;SDS011;25333;50.762;4.470;2023-04-25T06:22:41;8.90;;;3.47;;
38972;SDS011;25333;50.762;4.470;2023-04-25T06:25:07;10.85;;;3.67;;
38972;SDS011;25333;50.762;4.470;2023-04-25T06:27:33;12.50;;;4.00;;
38972;SDS011;25333;50.762;4.470;2023-04-25T06:29:59;11.23;;;3.20;;
38972;SDS011;25333;50.762;4.470;2023-04-25T06:32:25;10.57;;;3.33;;
38972;SDS011;25333;50.762;4.470;2023-04-25T06:34:52;13.75;;;3.35;;
38972;SDS011;25333;50.762;4.470;2023-04-25T06:37:18;4.63;;;3.30;;
38972;SDS011;25333;50.762;4.470;2023-04-25T06:39:44;7.00;;;3.28;;
38972;SDS011;25333;50.762;4.470;2023-04-25T06:42:09;13.27;;;3.88;;
38972;SDS011;25333;50.762;4.470;2023-04-25T06:44:35;8.85;;;3.72;;
38972;SDS011;25333;50.762;4.470;2023-04-25T06:47:01;11.20;;;4.03;;
38972;SDS011;25333;50.762;4.470;2023-04-25T06:49:27;9.02;;;3.90;;
38972;SDS011;25333;50.762;4.470;2023-04-25T06:51:53;10.00;;;4.17;;
38972;SDS011;25333;50.762;4.470;2023-04-25T06:54:18;9.67;;;3.70;;
38972;SDS011;25333;50.762;4.470;2023-04-25T06:56:44;9.93;;;4.03;;
38972;SDS011;25333;50.762;4.470;2023-04-25T06:59:10;8.27;;;3.43;;
38972;SDS011;25333;50.762;4.470;2023-04-25T07:01:35;11.45;;;4.72;;
38972;SDS011;25333;50.762;4.470;2023-04-25T07:04:01;14.07;;;4.63;;
38972;SDS011;25333;50.762;4.470;2023-04-25T07:06:27;11.27;;;4.97;;
38972;SDS011;25333;50.762;4.470;2023-04-25T07:08:53;11.75;;;4.20;;
38972;SDS011;25333;50.762;4.470;2023-04-25T07:11:19;12.45;;;5.38;;
38972;SDS011;25333;50.762;4.470;2023-04-25T07:13:45;14.90;;;4.70;;
38972;SDS011;25333;50.762;4.470;2023-04-25T07:16:10;9.40;;;4.63;;
38972;SDS011;25333;50.762;4.470;2023-04-25T07:18:36;10.88;;;5.15;;
38972;SDS011;25333;50.762;4.470;2023-04-25T07:21:02;13.17;;;5.37;;
38972;SDS011;25333;50.762;4.470;2023-04-25T07:23:27;12.00;;;5.23;;
38972;SDS011;25333;50.762;4.470;2023-04-25T07:25:53;10.32;;;3.92;;
38972;SDS011;25333;50.762;4.470;2023-04-25T07:28:19;18.48;;;6.20;;
38972;SDS011;25333;50.762;4.470;2023-04-25T07:30:45;10.60;;;4.73;;
38972;SDS011;25333;50.762;4.470;2023-04-25T07:33:11;10.05;;;5.60;;
38972;SDS011;25333;50.762;4.470;2023-04-25T07:35:36;13.73;;;5.88;;
38972;SDS011;25333;50.762;4.470;2023-04-25T07:38:02;12.23;;;5.57;;
38972;SDS011;25333;50.762;4.470;2023-04-25T07:40:28;14.20;;;5.28;;
38972;SDS011;25333;50.762;4.470;2023-04-25T07:42:55;10.30;;;5.15;;
38972;SDS011;25333;50.762;4.470;2023-04-25T07:45:20;15.23;;;5.30;;
38972;SDS011;25333;50.762;4.470;2023-04-25T07:47:46;15.55;;;6.32;;
38972;SDS011;25333;50.762;4.470;2023-04-25T07:50:12;17.40;;;5.83;;
38972;SDS011;25333;50.762;4.470;2023-04-25T07:52:37;11.00;;;4.50;;
38972;SDS011;25333;50.762;4.470;2023-04-25T07:55:03;12.48;;;4.35;;
38972;SDS011;25333;50.762;4.470;2023-04-25T07:57:29;12.65;;;5.07;;
38972;SDS011;25333;50.762;4.470;2023-04-25T07:59:55;14.30;;;5.47;;
38972;SDS011;25333;50.762;4.470;2023-04-25T08:02:21;12.00;;;4.25;;
38972;SDS011;25333;50.762;4.470;2023-04-25T08:04:46;9.13;;;3.90;;
38972;SDS011;25333;50.762;4.470;2023-04-25T08:07:14;11.40;;;3.20;;
38972;SDS011;25333;50.762;4.470;2023-04-25T08:09:40;10.88;;;3.40;;
38972;SDS011;25333;50.762;4.470;2023-04-25T08:12:06;7.00;;;2.47;;
38972;SDS011;25333;50.762;4.470;2023-04-25T08:14:31;8.67;;;2.80;;
38972;SDS011;25333;50.762;4.470;2023-04-25T08:17:01;7.45;;;2.28;;
38972;SDS011;25333;50.762;4.470;2023-04-25T08:19:28;5.50;;;2.42;;
38972;SDS011;25333;50.762;4.470;2023-04-25T08:21:55;9.90;;;3.88;;
38972;SDS011;25333;50.762;4.470;2023-04-25T08:24:21;9.97;;;2.77;;
38972;SDS011;25333;50.762;4.470;2023-04-25T08:26:47;9.60;;;2.85;;
38972;SDS011;25333;50.762;4.470;2023-04-25T08:29:13;7.53;;;2.53;;
38972;SDS011;25333;50.762;4.470;2023-04-25T08:31:39;5.83;;;2.70;;
38972;SDS011;25333;50.762;4.470;2023-04-25T08:34:05;7.70;;;2.42;;
38972;SDS011;25333;50.762;4.470;2023-04-25T08:36:31;9.50;;;3.25;;
38972;SDS011;25333;50.762;4.470;2023-04-25T08:38:57;7.13;;;1.70;;
38972;SDS011;25333;50.762;4.470;2023-04-25T08:41:23;11.82;;;3.13;;
38972;SDS011;25333;50.762;4.470;2023-04-25T08:43:50;7.80;;;2.90;;
38972;SDS011;25333;50.762;4.470;2023-04-25T08:46:18;6.63;;;2.08;;
38972;SDS011;25333;50.762;4.470;2023-04-25T08:48:45;8.05;;;2.40;;
38972;SDS011;25333;50.762;4.470;2023-04-25T08:51:15;6.65;;;3.25;;
38972;SDS011;25333;50.762;4.470;2023-04-25T08:53:46;8.48;;;2.85;;
38972;SDS011;25333;50.762;4.470;2023-04-25T08:56:15;6.70;;;2.53;;
38972;SDS011;25333;50.762;4.470;2023-04-25T08:58:50;8.93;;;2.17;;
38972;SDS011;25333;50.762;4.470;2023-04-25T09:01:17;7.07;;;2.28;;
38972;SDS011;25333;50.762;4.470;2023-04-25T09:03:43;11.48;;;2.92;;
38972;SDS011;25333;50.762;4.470;2023-04-25T09:06:13;7.55;;;2.13;;
38972;SDS011;25333;50.762;4.470;2023-04-25T09:08:39;6.68;;;2.42;;
38972;SDS011;25333;50.762;4.470;2023-04-25T09:11:06;10.40;;;2.88;;
38972;SDS011;25333;50.762;4.470;2023-04-25T09:13:32;5.00;;;2.10;;
38972;SDS011;25333;50.762;4.470;2023-04-25T09:15:58;8.57;;;2.67;;
38972;SDS011;25333;50.762;4.470;2023-04-25T09:18:27;8.27;;;2.72;;
38972;SDS011;25333;50.762;4.470;2023-04-25T09:20:55;9.45;;;2.40;;
38972;SDS011;25333;50.762;4.470;2023-04-25T09:23:23;9.27;;;2.60;;
38972;SDS011;25333;50.762;4.470;2023-04-25T09:25:49;4.97;;;2.33;;
38972;SDS011;25333;50.762;4.470;2023-04-25T09:28:17;5.50;;;2.10;;
38972;SDS011;25333;50.762;4.470;2023-04-25T09:30:54;9.52;;;2.58;;
38972;SDS011;25333;50.762;4.470;2023-04-25T09:33:22;6.15;;;1.88;;
38972;SDS011;25333;50.762;4.470;2023-04-25T09:36:07;6.72;;;1.85;;
38972;SDS011;25333;50.762;4.470;2023-04-25T09:38:41;5.78;;;1.92;;
38972;SDS011;25333;50.762;4.470;2023-04-25T09:41:08;6.50;;;1.98;;
38972;SDS011;25333;50.762;4.470;2023-04-25T09:43:35;4.32;;;1.75;;
38972;SDS011;25333;50.762;4.470;2023-04-25T09:46:01;3.20;;;1.67;;
38972;SDS011;25333;50.762;4.470;2023-04-25T09:48:28;6.07;;;1.75;;
38972;SDS011;25333;50.762;4.470;2023-04-25T09:53:30;6.32;;;1.77;;
38972;SDS011;25333;50.762;4.470;2023-04-25T09:55:58;5.10;;;1.52;;
38972;SDS011;25333;50.762;4.470;2023-04-25T09:58:25;4.97;;;1.38;;
38972;SDS011;25333;50.762;4.470;2023-04-25T10:00:55;3.42;;;1.70;;
38972;SDS011;25333;50.762;4.470;2023-04-25T10:03:35;4.32;;;1.80;;
38972;SDS011;25333;50.762;4.470;2023-04-25T10:06:06;5.22;;;1.33;;
38972;SDS011;25333;50.762;4.470;2023-04-25T10:08:37;5.95;;;1.20;;
38972;SDS011;25333;50.762;4.470;2023-04-25T10:11:04;8.40;;;1.60;;
38972;SDS011;25333;50.762;4.470;2023-04-25T10:13:32;5.20;;;1.48;;
38972;SDS011;25333;50.762;4.470;2023-04-25T10:15:59;4.80;;;1.38;;
38972;SDS011;25333;50.762;4.470;2023-04-25T10:18:26;4.85;;;1.20;;
38972;SDS011;25333;50.762;4.470;2023-04-25T10:20:56;3.22;;;1.10;;
38972;SDS011;25333;50.762;4.470;2023-04-25T10:23:25;2.47;;;1.00;;
38972;SDS011;25333;50.762;4.470;2023-04-25T10:25:52;5.45;;;1.55;;
38972;SDS011;25333;50.762;4.470;2023-04-25T10:28:19;4.15;;;1.70;;
38972;SDS011;25333;50.762;4.470;2023-04-25T10:31:01;3.97;;;1.33;;
38972;SDS011;25333;50.762;4.470;2023-04-25T10:38:35;4.13;;;1.33;;
38972;SDS011;25333;50.762;4.470;2023-04-25T10:41:06;3.13;;;1.05;;
38972;SDS011;25333;50.762;4.470;2023-04-25T10:43:40;7.13;;;1.17;;
38972;SDS011;25333;50.762;4.470;2023-04-25T10:46:14;7.03;;;1.20;;
38972;SDS011;25333;50.762;4.470;2023-04-25T10:48:51;4.93;;;1.37;;
38972;SDS011;25333;50.762;4.470;2023-04-25T10:53:57;4.30;;;1.00;;
38972;SDS011;25333;50.762;4.470;2023-04-25T10:56:29;4.18;;;1.27;;
38972;SDS011;25333;50.762;4.470;2023-04-25T10:59:09;6.85;;;1.15;;
38972;SDS011;25333;50.762;4.470;2023-04-25T11:01:46;4.10;;;1.13;;
38972;SDS011;25333;50.762;4.470;2023-04-25T11:09:32;5.77;;;1.17;;
38972;SDS011;25333;50.762;4.470;2023-04-25T11:11:59;5.28;;;0.95;;
38972;SDS011;25333;50.762;4.470;2023-04-25T11:14:26;3.08;;;0.60;;
38972;SDS011;25333;50.762;4.470;2023-04-25T11:16:52;4.22;;;1.00;;
38972;SDS011;25333;50.762;4.470;2023-04-25T11:19:20;2.42;;;0.63;;
38972;SDS011;25333;50.762;4.470;2023-04-25T11:21:46;3.63;;;1.13;;
38972;SDS011;25333;50.762;4.470;2023-04-25T11:24:11;4.30;;;0.90;;
38972;SDS011;25333;50.762;4.470;2023-04-25T11:26:37;3.25;;;0.60;;
38972;SDS011;25333;50.762;4.470;2023-04-25T11:29:03;3.63;;;0.57;;
38972;SDS011;25333;50.762;4.470;2023-04-25T11:31:29;4.80;;;1.20;;
38972;SDS011;25333;50.762;4.470;2023-04-25T11:33:58;5.00;;;0.73;;
38972;SDS011;25333;50.762;4.470;2023-04-25T11:36:25;5.60;;;1.27;;
38972;SDS011;25333;50.762;4.470;2023-04-25T11:38:51;2.65;;;0.70;;
38972;SDS011;25333;50.762;4.470;2023-04-25T11:41:18;2.00;;;0.60;;
38972;SDS011;25333;50.762;4.470;2023-04-25T11:43:45;5.88;;;1.30;;
38972;SDS011;25333;50.762;4.470;2023-04-25T11:46:11;4.88;;;1.30;;
38972;SDS011;25333;50.762;4.470;2023-04-25T11:48:38;6.67;;;0.97;;
38972;SDS011;25333;50.762;4.470;2023-04-25T11:51:04;5.18;;;1.00;;
38972;SDS011;25333;50.762;4.470;2023-04-25T11:53:30;3.67;;;0.80;;
38972;SDS011;25333;50.762;4.470;2023-04-25T11:55:56;3.43;;;0.70;;
38972;SDS011;25333;50.762;4.470;2023-04-25T11:58:22;3.97;;;1.20;;
38972;SDS011;25333;50.762;4.470;2023-04-25T12:00:48;2.50;;;0.70;;
38972;SDS011;25333;50.762;4.470;2023-04-25T12:03:14;4.63;;;0.90;;
38972;SDS011;25333;50.762;4.470;2023-04-25T12:05:39;2.55;;;0.63;;
38972;SDS011;25333;50.762;4.470;2023-04-25T12:08:15;3.85;;;0.75;;
38972;SDS011;25333;50.762;4.470;2023-04-25T12:10:42;7.43;;;0.98;;
38972;SDS011;25333;50.762;4.470;2023-04-25T12:13:27;4.30;;;0.60;;
38972;SDS011;25333;50.762;4.470;2023-04-25T12:15:56;1.75;;;0.70;;
38972;SDS011;25333;50.762;4.470;2023-04-25T12:18:25;2.50;;;0.77;;
38972;SDS011;25333;50.762;4.470;2023-04-25T12:20:54;3.17;;;0.90;;
38972;SDS011;25333;50.762;4.470;2023-04-25T12:23:28;1.73;;;0.60;;
38972;SDS011;25333;50.762;4.470;2023-04-25T12:25:55;4.70;;;1.00;;
38972;SDS011;25333;50.762;4.470;2023-04-25T12:28:22;2.30;;;0.80;;
38972;SDS011;25333;50.762;4.470;2023-04-25T12:31:03;3.27;;;0.60;;
38972;SDS011;25333;50.762;4.470;2023-04-25T12:33:30;4.25;;;0.82;;
38972;SDS011;25333;50.762;4.470;2023-04-25T12:35:57;5.57;;;1.20;;
38972;SDS011;25333;50.762;4.470;2023-04-25T12:38:31;4.32;;;0.80;;
38972;SDS011;25333;50.762;4.470;2023-04-25T12:41:02;5.95;;;0.90;;
38972;SDS011;25333;50.762;4.470;2023-04-25T12:43:27;4.03;;;0.90;;
38972;SDS011;25333;50.762;4.470;2023-04-25T12:45:54;3.47;;;0.75;;
38972;SDS011;25333;50.762;4.470;2023-04-25T12:48:20;4.55;;;0.65;;
38972;SDS011;25333;50.762;4.470;2023-04-25T12:50:47;2.30;;;0.70;;
38972;SDS011;25333;50.762;4.470;2023-04-25T12:53:16;2.50;;;0.40;;
38972;SDS011;25333;50.762;4.470;2023-04-25T12:55:46;2.78;;;0.60;;
38972;SDS011;25333;50.762;4.470;2023-04-25T12:58:12;1.90;;;0.40;;
38972;SDS011;25333;50.762;4.470;2023-04-25T13:00:42;2.15;;;0.50;;
38972;SDS011;25333;50.762;4.470;2023-04-25T13:03:08;2.97;;;0.43;;
38972;SDS011;25333;50.762;4.470;2023-04-25T13:05:35;2.23;;;0.20;;
38972;SDS011;25333;50.762;4.470;2023-04-25T13:08:02;2.03;;;0.60;;
38972;SDS011;25333;50.762;4.470;2023-04-25T13:10:28;2.25;;;0.60;;
38972;SDS011;25333;50.762;4.470;2023-04-25T13:12:54;2.90;;;0.68;;
38972;SDS011;25333;50.762;4.470;2023-04-25T13:15:20;3.63;;;0.40;;
38972;SDS011;25333;50.762;4.470;2023-04-25T13:17:46;3.67;;;0.70;;
38972;SDS011;25333;50.762;4.470;2023-04-25T13:20:12;1.40;;;0.50;;
38972;SDS011;25333;50.762;4.470;2023-04-25T13:22:39;3.85;;;0.40;;
38972;SDS011;25333;50.762;4.470;2023-04-25T13:25:06;2.17;;;0.30;;
38972;SDS011;25333;50.762;4.470;2023-04-25T13:27:33;5.18;;;0.70;;
38972;SDS011;25333;50.762;4.470;2023-04-25T13:30:01;1.73;;;0.40;;
38972;SDS011;25333;50.762;4.470;2023-04-25T13:32:32;2.35;;;0.65;;
38972;SDS011;25333;50.762;4.470;2023-04-25T13:34:58;2.63;;;0.37;;
38972;SDS011;25333;50.762;4.470;2023-04-25T13:37:26;4.68;;;0.75;;
38972;SDS011;25333;50.762;4.470;2023-04-25T13:39:52;3.80;;;0.70;;
38972;SDS011;25333;50.762;4.470;2023-04-25T13:42:18;1.50;;;0.63;;
38972;SDS011;25333;50.762;4.470;2023-04-25T13:44:44;2.93;;;0.90;;
38972;SDS011;25333;50.762;4.470;2023-04-25T13:47:19;4.00;;;0.95;;
38972;SDS011;25333;50.762;4.470;2023-04-25T13:49:56;4.70;;;0.90;;
38972;SDS011;25333;50.762;4.470;2023-04-25T13:52:22;2.58;;;0.68;;
38972;SDS011;25333;50.762;4.470;2023-04-25T13:55:05;2.47;;;0.90;;
38972;SDS011;25333;50.762;4.470;2023-04-25T13:57:32;3.30;;;0.50;;
38972;SDS011;25333;50.762;4.470;2023-04-25T13:59:58;2.47;;;0.65;;
38972;SDS011;25333;50.762;4.470;2023-04-25T14:02:24;3.38;;;0.60;;
38972;SDS011;25333;50.762;4.470;2023-04-25T14:04:50;2.30;;;0.63;;
38972;SDS011;25333;50.762;4.470;2023-04-25T14:07:16;2.95;;;0.70;;
38972;SDS011;25333;50.762;4.470;2023-04-25T14:09:44;3.15;;;0.50;;
38972;SDS011;25333;50.762;4.470;2023-04-25T14:12:10;2.53;;;0.40;;
38972;SDS011;25333;50.762;4.470;2023-04-25T14:14:36;2.05;;;0.50;;
38972;SDS011;25333;50.762;4.470;2023-04-25T14:17:03;1.90;;;0.70;;
38972;SDS011;25333;50.762;4.470;2023-04-25T14:19:28;3.50;;;0.80;;
38972;SDS011;25333;50.762;4.470;2023-04-25T14:21:54;3.60;;;0.50;;
38972;SDS011;25333;50.762;4.470;2023-04-25T14:24:20;1.73;;;0.45;;
38972;SDS011;25333;50.762;4.470;2023-04-25T14:26:46;4.18;;;0.82;;
38972;SDS011;25333;50.762;4.470;2023-04-25T14:29:12;3.57;;;0.80;;
38972;SDS011;25333;50.762;4.470;2023-04-25T14:31:38;4.72;;;0.73;;
38972;SDS011;25333;50.762;4.470;2023-04-25T14:34:05;3.28;;;0.77;;
38972;SDS011;25333;50.762;4.470;2023-04-25T14:36:31;3.58;;;0.60;;
38972;SDS011;25333;50.762;4.470;2023-04-25T14:38:57;2.70;;;0.55;;
38972;SDS011;25333;50.762;4.470;2023-04-25T14:41:24;2.28;;;0.70;;
38972;SDS011;25333;50.762;4.470;2023-04-25T14:43:50;4.60;;;0.80;;
38972;SDS011;25333;50.762;4.470;2023-04-25T14:46:17;1.67;;;0.50;;
38972;SDS011;25333;50.762;4.470;2023-04-25T14:48:44;3.05;;;0.68;;
38972;SDS011;25333;50.762;4.470;2023-04-25T14:51:10;2.85;;;0.60;;
38972;SDS011;25333;50.762;4.470;2023-04-25T14:53:36;2.83;;;0.70;;
38972;SDS011;25333;50.762;4.470;2023-04-25T14:56:02;2.88;;;0.30;;
38972;SDS011;25333;50.762;4.470;2023-04-25T14:58:28;1.55;;;0.52;;